Time;durP1;ratioP1;P1;durP2;ratioP2;P2;SDS_P1;SDS_P2;PMS_P1;PMS_P2;Temp;Humidity;BMP_temperature;BMP_pressure;BME280_temperature;BME280_humidity;BME280_pressure;Samples;Min_cycle;Max_cycle;Signal;HPM_P1;HPM_P2
2022/04/10 00:00:39;;;;;;;11.60;3.67;;;2.80;99.90;;;;;;5071298;28;20047;-70
2022/04/10 00:03:06;;;;;;;14.02;2.65;;;2.90;99.90;;;;;;5062259;28;20040;-70
2022/04/10 00:05:32;;;;;;;11.48;2.72;;;2.90;99.90;;;;;;5061217;28;20053;-70
2022/04/10 00:07:58;;;;;;;15.45;2.67;;;2.90;99.90;;;;;;5066067;28;20143;-71
2022/04/10 00:10:23;;;;;;;8.65;2.30;;;2.90;99.90;;;;;;5065693;28;20062;-70
2022/04/10 00:12:49;;;;;;;9.23;2.33;;;2.80;99.90;;;;;;5065686;28;20045;-70
2022/04/10 00:15:15;;;;;;;14.77;2.75;;;2.80;99.90;;;;;;5063642;28;20055;-70
2022/04/10 00:17:42;;;;;;;9.70;2.90;;;2.80;99.90;;;;;;5057776;28;20049;-70
2022/04/10 00:20:09;;;;;;;15.93;3.08;;;2.80;99.90;;;;;;5052463;28;20067;-70
2022/04/10 00:22:43;;;;;;;13.05;2.17;;;2.80;99.90;;;;;;5034984;28;20041;-70
2022/04/10 00:25:11;;;;;;;8.07;2.33;;;2.80;99.90;;;;;;5051084;28;20037;-70
2022/04/10 00:27:37;;;;;;;15.45;3.20;;;2.80;99.90;;;;;;5051285;28;20517;-70
2022/04/10 00:30:04;;;;;;;8.38;2.53;;;2.80;99.90;;;;;;5051263;28;20120;-70
2022/04/10 00:32:29;;;;;;;9.77;2.45;;;2.80;99.90;;;;;;5054373;28;20155;-70
2022/04/10 00:34:55;;;;;;;8.60;2.80;;;2.80;99.90;;;;;;5055164;28;20080;-70
2022/04/10 00:37:21;;;;;;;13.57;2.83;;;2.70;99.90;;;;;;5055331;28;20048;-70
2022/04/10 00:39:47;;;;;;;13.88;2.70;;;2.70;99.90;;;;;;5055427;28;20037;-70
2022/04/10 00:42:12;;;;;;;11.15;2.85;;;2.70;99.90;;;;;;5038962;28;20397;-70
2022/04/10 00:44:38;;;;;;;17.73;4.15;;;2.70;99.90;;;;;;5052984;28;20404;-70
2022/04/10 00:47:05;;;;;;;20.92;4.28;;;2.70;99.90;;;;;;5056338;28;20556;-70
2022/04/10 00:49:31;;;;;;;10.32;2.38;;;2.70;99.90;;;;;;5055020;28;20041;-70
2022/04/10 00:51:59;;;;;;;13.80;2.40;;;2.70;99.90;;;;;;5055081;28;20098;-71
2022/04/10 00:54:26;;;;;;;16.77;2.80;;;2.70;99.90;;;;;;5054931;28;20056;-70
2022/04/10 00:56:53;;;;;;;13.88;2.70;;;2.80;99.90;;;;;;5054922;28;20055;-70
2022/04/10 00:59:19;;;;;;;12.35;2.45;;;2.70;99.90;;;;;;5056120;28;20120;-71
2022/04/10 01:01:45;;;;;;;8.65;2.80;;;2.70;99.90;;;;;;5055152;28;20080;-70
2022/04/10 01:04:16;;;;;;;15.15;2.63;;;2.70;99.90;;;;;;5056135;28;20095;-70
2022/04/10 01:06:47;;;;;;;11.43;2.17;;;2.60;99.90;;;;;;5054785;28;20486;-71
2022/04/10 01:09:14;;;;;;;8.88;2.30;;;2.60;99.90;;;;;;5055779;28;20469;-71
2022/04/10 01:11:40;;;;;;;14.30;2.65;;;2.50;99.90;;;;;;5055960;28;20494;-71
2022/04/10 01:14:06;;;;;;;13.90;2.70;;;2.50;99.90;;;;;;5065775;28;20044;-70
2022/04/10 01:16:34;;;;;;;11.85;2.58;;;2.50;99.90;;;;;;5074594;28;20044;-70
2022/04/10 01:19:02;;;;;;;9.77;2.63;;;2.60;99.90;;;;;;5075908;28;20499;-71
2022/04/10 01:21:30;;;;;;;17.80;2.75;;;2.60;99.90;;;;;;5075572;28;20186;-70
2022/04/10 01:23:57;;;;;;;9.60;2.78;;;2.50;99.90;;;;;;5075411;28;20045;-71
2022/04/10 01:26:23;;;;;;;13.43;2.95;;;2.50;99.90;;;;;;5074639;28;20419;-71
2022/04/10 01:29:00;;;;;;;19.65;3.63;;;2.40;99.90;;;;;;5074565;28;20028;-70
2022/04/10 01:31:27;;;;;;;8.80;2.35;;;2.30;99.90;;;;;;5075831;28;20040;-71
2022/04/10 01:33:57;;;;;;;20.85;3.50;;;2.20;99.90;;;;;;5074416;28;20346;-70
2022/04/10 01:36:27;;;;;;;11.70;3.08;;;2.10;99.90;;;;;;5075591;28;20040;-70
2022/04/10 01:38:55;;;;;;;;;;;2.10;99.90;;;;;;5075917;28;20040;-70
2022/04/10 01:41:22;;;;;;;11.07;2.05;;;2.00;99.90;;;;;;5074262;28;19946;-70
2022/04/10 01:43:49;;;;;;;7.88;1.80;;;1.90;99.90;;;;;;5072621;28;20055;-70
2022/04/10 01:46:16;;;;;;;10.27;2.53;;;1.90;99.90;;;;;;5074212;28;20119;-71
2022/04/10 01:48:42;;;;;;;13.80;2.95;;;1.80;99.90;;;;;;5075186;28;20104;-71
2022/04/10 01:51:08;;;;;;;9.43;2.50;;;1.70;99.90;;;;;;5074140;28;20036;-71
2022/04/10 01:53:35;;;;;;;10.90;2.70;;;1.70;99.90;;;;;;5074004;28;20047;-70
2022/04/10 01:56:02;;;;;;;12.07;2.45;;;1.60;99.90;;;;;;5057080;28;20127;-70
2022/04/10 01:58:30;;;;;;;12.20;2.60;;;1.60;99.90;;;;;;5075299;28;20044;-70
2022/04/10 02:00:56;;;;;;;9.52;2.65;;;1.60;99.90;;;;;;5074924;28;20050;-71
2022/04/10 02:03:22;;;;;;;10.35;2.42;;;1.60;99.90;;;;;;5073908;28;20048;-71
2022/04/10 02:05:48;;;;;;;6.20;2.13;;;1.60;99.90;;;;;;5075028;28;20040;-70
2022/04/10 02:08:14;;;;;;;10.18;2.78;;;1.60;99.90;;;;;;5074901;28;20032;-71
2022/04/10 02:10:40;;;;;;;13.27;2.10;;;1.60;99.90;;;;;;5073533;28;20041;-71
2022/04/10 02:13:09;;;;;;;15.23;3.22;;;1.50;99.90;;;;;;5069617;28;20037;-71
2022/04/10 02:15:39;;;;;;;9.90;2.33;;;1.50;99.90;;;;;;5051315;28;20113;-71
2022/04/10 02:18:05;;;;;;;15.27;3.00;;;1.50;99.90;;;;;;5053662;28;20047;-71
2022/04/10 02:20:32;;;;;;;11.73;2.70;;;1.50;99.90;;;;;;5033692;28;20071;-71
2022/04/10 02:22:58;;;;;;;11.25;2.70;;;1.60;99.90;;;;;;5054623;28;20056;-71
2022/04/10 02:25:24;;;;;;;11.40;2.20;;;1.60;99.90;;;;;;5053200;28;20037;-71
2022/04/10 02:27:50;;;;;;;8.57;2.15;;;1.60;99.90;;;;;;5054198;28;20504;-71
2022/04/10 02:30:16;;;;;;;8.07;2.15;;;1.60;99.90;;;;;;5054458;28;20045;-71
2022/04/10 02:32:42;;;;;;;16.27;3.15;;;1.60;99.90;;;;;;5053192;28;20047;-71
2022/04/10 02:35:08;;;;;;;10.10;3.97;;;1.60;99.90;;;;;;5053328;28;20132;-71
2022/04/10 02:37:35;;;;;;;8.80;2.10;;;1.60;99.90;;;;;;5054396;28;20041;-71
2022/04/10 02:40:02;;;;;;;7.35;2.20;;;1.70;99.90;;;;;;5053997;28;20049;-71
2022/04/10 02:42:28;;;;;;;10.30;2.55;;;1.70;99.90;;;;;;5053236;28;20107;-71
2022/04/10 02:44:54;;;;;;;10.95;2.45;;;1.70;99.90;;;;;;5050882;28;20037;-71
2022/04/10 02:47:20;;;;;;;10.50;2.20;;;1.70;99.90;;;;;;5054227;28;20120;-71
2022/04/10 02:49:47;;;;;;;8.95;2.03;;;1.70;99.90;;;;;;5054156;28;20479;-71
2022/04/10 02:52:13;;;;;;;12.68;2.42;;;1.70;99.90;;;;;;5054014;28;20037;-71
2022/04/10 02:54:38;;;;;;;8.48;2.13;;;1.70;99.90;;;;;;5053387;28;20048;-71
2022/04/10 02:57:04;;;;;;;8.95;2.30;;;1.60;99.90;;;;;;5052891;28;20041;-71
2022/04/10 02:59:30;;;;;;;6.55;1.73;;;1.60;99.90;;;;;;5052619;28;20080;-71
2022/04/10 03:01:56;;;;;;;7.38;1.90;;;1.70;99.90;;;;;;5052846;28;20142;-71
2022/04/10 03:04:22;;;;;;;8.88;1.98;;;1.70;99.90;;;;;;5052477;28;20382;-71
2022/04/10 03:06:48;;;;;;;12.07;2.78;;;1.80;99.90;;;;;;5036127;28;20085;-71
2022/04/10 03:09:14;;;;;;;10.57;2.17;;;1.80;99.90;;;;;;5053998;28;20552;-71
2022/04/10 03:11:40;;;;;;;11.77;3.33;;;2.00;99.90;;;;;;5052296;28;20091;-71
2022/04/10 03:14:06;;;;;;;11.73;2.13;;;2.10;99.90;;;;;;5063731;28;20075;-71
2022/04/10 03:16:32;;;;;;;17.40;2.90;;;2.30;99.90;;;;;;5072260;28;20044;-71
2022/04/10 03:18:57;;;;;;;7.45;2.22;;;2.40;99.90;;;;;;5055772;28;20048;-71
2022/04/10 03:21:23;;;;;;;7.85;2.35;;;2.50;99.90;;;;;;5071890;28;20059;-72
2022/04/10 03:23:49;;;;;;;10.70;2.08;;;2.70;99.90;;;;;;5072382;28;20052;-72
2022/04/10 03:26:15;;;;;;;6.03;1.67;;;2.80;99.90;;;;;;5073444;28;20469;-72
2022/04/10 03:28:41;;;;;;;11.98;2.40;;;3.00;99.90;;;;;;5072092;28;20040;-72
2022/04/10 03:31:07;;;;;;;13.48;3.50;;;3.20;99.90;;;;;;5055662;28;20098;-72
2022/04/10 03:33:33;;;;;;;10.07;2.47;;;3.30;99.90;;;;;;5073284;28;20040;-72
2022/04/10 03:35:59;;;;;;;10.23;1.88;;;3.30;99.90;;;;;;5071780;28;20074;-71
2022/04/10 03:38:24;;;;;;;10.73;1.92;;;3.40;99.90;;;;;;5072249;28;20044;-71
2022/04/10 03:40:50;;;;;;;11.45;2.17;;;3.40;99.90;;;;;;5073122;28;20067;-71
2022/04/10 03:43:16;;;;;;;7.88;2.30;;;3.30;99.90;;;;;;5071808;28;20041;-71
2022/04/10 03:45:42;;;;;;;9.88;2.28;;;3.30;99.90;;;;;;5069564;28;20052;-71
2022/04/10 03:48:08;;;;;;;8.27;1.58;;;3.20;99.90;;;;;;5071768;28;20048;-71
2022/04/10 03:50:35;;;;;;;7.18;2.03;;;3.10;99.90;;;;;;5071766;28;20499;-71
2022/04/10 03:53:01;;;;;;;10.95;2.03;;;3.10;99.90;;;;;;5073297;28;20418;-71
2022/04/10 03:55:27;;;;;;;10.75;2.08;;;3.00;99.90;;;;;;5071587;28;20516;-71
2022/04/10 03:57:53;;;;;;;9.15;1.92;;;3.00;99.90;;;;;;5071939;28;20040;-71
2022/04/10 04:00:20;;;;;;;11.55;2.92;;;3.00;99.90;;;;;;5071650;28;20556;-71
2022/04/10 04:02:46;;;;;;;12.27;2.20;;;3.00;99.90;;;;;;5071608;28;20047;-71
2022/04/10 04:05:12;;;;;;;9.02;1.90;;;3.00;99.90;;;;;;5072519;28;20401;-71
2022/04/10 04:07:38;;;;;;;7.05;2.05;;;3.00;99.90;;;;;;5072700;28;20040;-71
2022/04/10 04:10:06;;;;;;;12.60;1.98;;;3.00;99.90;;;;;;5071567;28;20123;-71
2022/04/10 04:12:31;;;;;;;9.80;2.38;;;3.00;99.90;;;;;;5070991;28;20497;-71
2022/04/10 04:14:58;;;;;;;7.00;1.70;;;3.10;99.90;;;;;;5050553;28;20115;-71
2022/04/10 04:17:23;;;;;;;10.70;2.58;;;3.10;99.90;;;;;;5052671;28;20036;-71
2022/04/10 04:19:53;;;;;;;9.02;1.85;;;3.10;99.90;;;;;;5035002;28;20123;-71
2022/04/10 04:22:20;;;;;;;10.68;1.58;;;3.10;99.90;;;;;;5051654;28;20417;-71
2022/04/10 04:24:45;;;;;;;9.23;1.80;;;3.00;99.90;;;;;;5052631;28;20041;-71
2022/04/10 04:27:12;;;;;;;8.73;1.83;;;3.00;99.90;;;;;;5051424;28;20371;-71
2022/04/10 04:29:38;;;;;;;9.55;1.52;;;3.00;99.90;;;;;;5034677;28;20048;-71
2022/04/10 04:32:04;;;;;;;4.15;1.30;;;3.10;99.90;;;;;;5051418;28;20375;-70
2022/04/10 04:34:30;;;;;;;6.68;1.75;;;3.20;99.90;;;;;;5048429;28;20056;-73
2022/04/10 04:36:56;;;;;;;6.30;1.30;;;3.30;99.90;;;;;;5052383;28;20045;-72
2022/04/10 04:39:23;;;;;;;4.65;1.35;;;3.40;99.90;;;;;;5051238;28;20041;-72
2022/04/10 04:41:49;;;;;;;5.07;1.63;;;3.40;99.90;;;;;;5051445;28;20363;-73
2022/04/10 04:44:15;;;;;;;5.55;2.03;;;3.40;99.90;;;;;;5032210;28;20113;-73
2022/04/10 04:46:41;;;;;;;7.40;2.15;;;3.40;99.90;;;;;;5051070;28;20569;-72
2022/04/10 04:49:07;;;;;;;6.88;1.65;;;3.40;99.90;;;;;;5051112;28;20124;-72
2022/04/10 04:51:36;;;;;;;7.68;1.40;;;3.30;99.90;;;;;;5051053;28;20076;-72
2022/04/10 04:54:03;;;;;;;2.83;1.58;;;3.30;99.90;;;;;;5051106;28;20120;-72
2022/04/10 04:56:29;;;;;;;6.65;2.90;;;3.30;99.90;;;;;;5051920;28;20049;-73
2022/04/10 04:58:55;;;;;;;4.80;1.17;;;3.20;99.90;;;;;;5052391;28;20052;-72
2022/04/10 05:01:21;;;;;;;3.75;1.13;;;3.20;99.90;;;;;;5050931;28;20052;-73
2022/04/10 05:03:47;;;;;;;4.85;1.30;;;3.20;99.90;;;;;;5034412;28;20049;-72
2022/04/10 05:06:13;;;;;;;4.95;1.33;;;3.10;99.90;;;;;;5051015;28;20086;-72
2022/04/10 05:08:39;;;;;;;6.20;1.35;;;3.20;99.90;;;;;;5051084;28;20033;-72
2022/04/10 05:11:08;;;;;;;4.07;1.35;;;3.20;99.90;;;;;;5052255;28;20044;-72
2022/04/10 05:13:35;;;;;;;3.92;1.33;;;3.30;99.90;;;;;;5060306;28;20500;-72
2022/04/10 05:16:01;;;;;;;7.13;1.67;;;3.30;99.90;;;;;;5070029;28;20037;-73
2022/04/10 05:18:27;;;;;;;4.15;1.20;;;3.40;99.90;;;;;;5073687;28;20370;-72
2022/04/10 05:20:52;;;;;;;4.72;1.50;;;3.50;99.90;;;;;;5075912;28;20052;-72
2022/04/10 05:23:19;;;;;;;5.03;1.30;;;3.50;99.90;;;;;;5074537;28;20051;-72
2022/04/10 05:25:45;;;;;;;4.05;1.27;;;3.60;99.90;;;;;;5074808;28;20155;-72
2022/04/10 05:28:11;;;;;;;3.47;1.10;;;3.60;99.90;;;;;;5057829;28;20490;-72
2022/04/10 05:30:37;;;;;;;6.15;1.35;;;3.70;99.90;;;;;;5075654;28;20495;-72
2022/04/10 05:33:03;;;;;;;3.70;1.27;;;3.70;99.90;;;;;;5074529;28;20080;-72
2022/04/10 05:35:29;;;;;;;6.70;1.60;;;3.70;99.90;;;;;;5074268;28;20048;-72
2022/04/10 05:37:55;;;;;;;3.25;1.30;;;3.70;99.90;;;;;;5074513;28;20040;-72
2022/04/10 05:40:22;;;;;;;3.05;1.17;;;3.70;99.90;;;;;;5074213;28;20485;-72
2022/04/10 05:42:48;;;;;;;5.07;1.20;;;3.70;99.90;;;;;;5074526;28;20091;-72
2022/04/10 05:45:14;;;;;;;8.40;1.20;;;3.80;99.90;;;;;;5071874;28;20102;-72
2022/04/10 05:47:41;;;;;;;3.60;1.30;;;3.80;99.90;;;;;;5074055;28;20048;-72
2022/04/10 05:50:09;;;;;;;7.68;1.40;;;3.80;99.90;;;;;;5074230;28;20048;-72
2022/04/10 05:52:39;;;;;;;3.88;1.10;;;3.90;99.90;;;;;;5073964;28;20120;-72
2022/04/10 05:55:09;;;;;;;10.48;2.10;;;3.90;99.90;;;;;;5075285;28;20048;-71
2022/04/10 05:57:35;;;;;;;;;;;4.00;99.90;;;;;;5075353;28;20464;-72
2022/04/10 06:00:05;;;;;;;3.90;1.13;;;4.00;99.90;;;;;;5074033;28;19963;-72
2022/04/10 06:02:31;;;;;;;6.32;1.40;;;4.10;99.90;;;;;;5073811;28;20105;-72
2022/04/10 06:04:56;;;;;;;4.90;1.20;;;4.20;99.90;;;;;;5075024;28;20040;-72
2022/04/10 06:07:22;;;;;;;4.38;1.60;;;4.50;99.90;;;;;;5073663;28;20040;-72
2022/04/10 06:09:48;;;;;;;5.57;1.10;;;4.60;99.90;;;;;;5073766;28;20089;-72
2022/04/10 06:12:14;;;;;;;8.00;1.40;;;4.70;99.90;;;;;;5074790;28;20036;-72
2022/04/10 06:14:40;;;;;;;5.97;2.55;;;4.80;99.90;;;;;;5054191;28;20036;-72
2022/04/10 06:17:07;;;;;;;5.20;1.73;;;4.90;99.90;;;;;;5054791;28;20662;-73
2022/04/10 06:19:34;;;;;;;6.03;1.10;;;5.20;99.90;;;;;;5054968;28;20048;-72
2022/04/10 06:22:00;;;;;;;5.57;1.23;;;5.40;99.90;;;;;;5059280;28;20057;-72
2022/04/10 06:24:27;;;;;;;7.18;2.15;;;5.70;99.90;;;;;;5036683;28;20081;-73
2022/04/10 06:26:53;;;;;;;6.93;1.60;;;6.00;99.90;;;;;;5053288;28;20048;-72
2022/04/10 06:29:20;;;;;;;8.23;1.67;;;6.20;99.90;;;;;;5053519;28;20056;-72
2022/04/10 06:31:46;;;;;;;5.25;1.40;;;6.40;99.90;;;;;;5053505;28;20033;-72
2022/04/10 06:34:12;;;;;;;3.53;1.20;;;6.60;99.90;;;;;;5053136;28;20045;-72
2022/04/10 06:36:39;;;;;;;4.63;1.42;;;6.80;99.90;;;;;;5054609;28;20127;-72
2022/04/10 06:39:05;;;;;;;11.85;2.40;;;7.00;99.90;;;;;;5054325;28;20044;-72
2022/04/10 06:41:30;;;;;;;5.53;1.20;;;7.10;99.90;;;;;;5065393;28;20055;-72
2022/04/10 06:43:56;;;;;;;5.43;1.35;;;7.30;99.90;;;;;;5070614;28;20070;-72
2022/04/10 06:46:23;;;;;;;8.35;2.10;;;7.40;99.90;;;;;;5074061;28;20566;-72
2022/04/10 06:48:50;;;;;;;5.72;1.50;;;7.50;99.90;;;;;;5074197;28;20621;-71
2022/04/10 06:51:19;;;;;;;3.90;0.98;;;7.60;99.90;;;;;;5073098;28;20043;-71
2022/04/10 06:53:45;;;;;;;3.10;1.25;;;7.60;99.90;;;;;;5072659;28;20105;-71
2022/04/10 06:56:11;;;;;;;7.88;1.45;;;7.60;99.90;;;;;;5073854;28;20068;-70
2022/04/10 06:58:37;;;;;;;5.25;1.98;;;7.70;99.90;;;;;;5073934;28;20044;-71
2022/04/10 07:01:03;;;;;;;9.02;1.80;;;7.70;99.90;;;;;;5072583;28;20036;-73
2022/04/10 07:03:29;;;;;;;9.00;1.30;;;7.60;99.90;;;;;;5072415;28;20047;-70
2022/04/10 07:05:55;;;;;;;7.72;1.80;;;7.30;99.90;;;;;;5072405;28;20477;-71
2022/04/10 07:08:21;;;;;;;6.82;1.60;;;7.10;99.90;;;;;;5072629;28;20051;-71
2022/04/10 07:10:46;;;;;;;6.57;1.50;;;6.90;99.90;;;;;;5073549;28;20115;-71
2022/04/10 07:13:20;;;;;;;8.50;1.63;;;6.80;99.90;;;;;;5072062;28;20120;-71
2022/04/10 07:15:52;;;;;;;8.88;1.65;;;6.80;99.90;;;;;;5071529;28;20045;-71
2022/04/10 07:18:19;;;;;;;9.43;1.98;;;6.90;99.90;;;;;;5072019;28;20040;-71
2022/04/10 07:20:45;;;;;;;9.40;1.42;;;7.10;99.90;;;;;;5072328;28;20056;-73
2022/04/10 07:25:56;;;;;;;9.02;2.13;;;7.40;99.90;;;;;;5072303;28;20154;-71
2022/04/10 07:28:23;;;;;;;6.00;1.75;;;7.70;99.90;;;;;;5072199;28;20053;-71
2022/04/10 07:30:49;;;;;;;7.38;1.70;;;7.80;99.90;;;;;;5073411;28;20583;-72
2022/04/10 07:33:15;;;;;;;7.63;1.38;;;7.80;99.90;;;;;;5055517;28;20135;-71
2022/04/10 07:35:45;;;;;;;10.52;1.80;;;7.70;99.90;;;;;;5071930;28;20047;-72
2022/04/10 07:38:11;;;;;;;8.90;2.20;;;7.60;99.90;;;;;;5072097;28;20037;-71
2022/04/10 07:40:40;;;;;;;7.43;1.85;;;7.40;99.90;;;;;;5072957;28;20037;-71
2022/04/10 07:43:06;;;;;;;10.63;2.13;;;7.50;99.90;;;;;;5069333;28;20047;-71
2022/04/10 07:48:17;;;;;;;12.77;2.35;;;7.90;99.90;;;;;;5071990;28;20558;-71
2022/04/10 07:50:43;;;;;;;11.23;2.17;;;8.30;99.90;;;;;;5057077;28;20037;-71
2022/04/10 07:53:10;;;;;;;9.98;1.52;;;8.70;99.90;;;;;;5052345;28;20039;-72
2022/04/10 07:55:36;;;;;;;8.68;3.00;;;8.80;99.90;;;;;;5052195;28;20045;-71
2022/04/10 07:58:02;;;;;;;9.20;2.30;;;8.90;99.90;;;;;;5061919;28;20043;-72
2022/04/10 08:00:32;;;;;;;12.80;3.20;;;8.90;99.90;;;;;;5066354;28;20089;-73
2022/04/10 08:02:58;;;;;;;9.93;2.08;;;8.70;99.90;;;;;;5055468;28;20097;-74
2022/04/10 08:05:24;;;;;;;7.20;1.58;;;8.40;99.90;;;;;;5055530;28;20490;-72
2022/04/10 08:07:50;;;;;;;9.77;1.85;;;8.10;99.90;;;;;;5057239;28;20036;-73
2022/04/10 08:10:16;;;;;;;5.57;1.40;;;7.80;99.90;;;;;;5065797;28;20045;-72
2022/04/10 08:12:44;;;;;;;13.52;2.38;;;7.60;99.90;;;;;;5040230;28;20124;-72
2022/04/10 08:15:10;;;;;;;6.78;2.00;;;7.50;99.90;;;;;;5055765;28;20075;-72
2022/04/10 08:17:37;;;;;;;9.23;1.90;;;7.90;99.90;;;;;;5062814;28;20045;-72
2022/04/10 08:20:04;;;;;;;11.00;1.58;;;8.40;99.90;;;;;;5054778;28;20469;-72
2022/04/10 08:22:32;;;;;;;5.97;1.90;;;9.00;99.90;;;;;;5056257;28;20052;-72
2022/04/10 08:25:07;;;;;;;6.97;1.73;;;9.40;99.90;;;;;;5058011;28;20124;-72
2022/04/10 08:27:33;;;;;;;7.35;1.60;;;9.20;99.90;;;;;;5044336;28;20370;-74
2022/04/10 08:29:59;;;;;;;10.40;2.33;;;8.80;99.90;;;;;;5057922;28;20048;-73
2022/04/10 08:32:25;;;;;;;8.57;2.40;;;8.40;99.90;;;;;;5057793;28;20162;-72
2022/04/10 08:34:51;;;;;;;8.48;2.15;;;8.50;99.90;;;;;;5058537;28;20123;-72
2022/04/10 08:37:17;;;;;;;8.63;1.95;;;9.00;99.90;;;;;;5061500;28;20037;-72
2022/04/10 08:39:43;;;;;;;7.53;1.85;;;9.60;99.90;;;;;;5057484;28;20052;-72
2022/04/10 08:42:09;;;;;;;5.95;1.75;;;9.80;99.90;;;;;;5058806;28;20056;-73
2022/04/10 08:44:36;;;;;;;7.10;1.55;;;9.50;99.90;;;;;;5052366;28;20045;-74
2022/04/10 08:47:03;;;;;;;7.80;1.60;;;9.10;99.90;;;;;;5056178;28;20049;-72
2022/04/10 08:49:29;;;;;;;6.75;1.73;;;8.60;99.90;;;;;;5051508;28;20032;-72
2022/04/10 08:51:56;;;;;;;7.88;2.28;;;8.20;99.90;;;;;;5057232;28;20033;-73
2022/04/10 08:54:23;;;;;;;7.05;1.67;;;8.00;99.90;;;;;;5067877;28;20036;-73
2022/04/10 08:56:52;;;;;;;7.88;1.73;;;8.50;99.90;;;;;;5059297;28;20237;-74
2022/04/10 08:59:20;;;;;;;13.23;3.50;;;9.10;99.90;;;;;;5063560;28;20040;-73
2022/04/10 09:01:52;;;;;;;9.07;1.88;;;9.70;99.90;;;;;;5046678;28;20484;-75
2022/04/10 09:04:20;;;;;;;8.13;2.17;;;10.20;99.90;;;;;;5060926;28;20043;-73
2022/04/10 09:07:04;;;;;;;8.00;1.60;;;10.60;99.90;;;;;;5058979;28;20037;-72
2022/04/10 09:09:34;;;;;;;5.32;1.40;;;10.70;99.90;;;;;;5058806;28;20112;-72
2022/04/10 09:12:01;;;;;;;;;;;10.10;99.90;;;;;;5039472;28;20045;-72
2022/04/10 09:14:35;;;;;;;5.80;1.52;;;9.60;99.90;;;;;;5051472;28;20554;-72
2022/04/10 09:17:14;;;;;;;7.57;1.95;;;9.80;99.90;;;;;;5053302;28;20048;-73
2022/04/10 09:19:45;;;;;;;5.38;2.03;;;10.30;99.90;;;;;;5053679;28;20044;-72
2022/04/10 09:22:19;;;;;;;;;;;10.80;99.90;;;;;;5053860;28;20056;-73
2022/04/10 09:25:07;;;;;;;7.53;1.58;;;11.20;99.90;;;;;;5062013;28;20042;-75
2022/04/10 09:27:38;;;;;;;7.70;2.80;;;10.80;99.90;;;;;;5054533;28;20119;-71
2022/04/10 09:30:09;;;;;;;5.78;1.40;;;10.30;99.90;;;;;;5054338;28;20059;-73
2022/04/10 09:32:52;;;;;;;8.45;2.03;;;9.70;99.90;;;;;;5054426;28;20051;-73
2022/04/10 09:35:20;;;;;;;5.88;1.30;;;10.00;99.90;;;;;;5054539;28;20379;-73
2022/04/10 09:37:50;;;;;;;9.77;1.95;;;10.60;99.90;;;;;;5055760;28;20479;-73
2022/04/10 09:40:32;;;;;;;7.03;2.77;;;11.20;99.90;;;;;;5054545;28;20088;-72
2022/04/10 09:43:12;;;;;;;8.52;1.90;;;11.60;99.90;;;;;;5054267;28;20045;-72
2022/04/10 09:45:40;;;;;;;6.60;2.20;;;11.80;99.90;;;;;;5035122;28;20073;-73
2022/04/10 09:48:18;;;;;;;7.68;1.60;;;12.20;99.90;;;;;;5054323;28;20483;-74
2022/04/10 09:50:43;;;;;;;8.02;1.23;;;12.60;99.90;;;;;;5055146;28;20486;-72
2022/04/10 09:53:11;;;;;;;6.72;1.20;;;12.30;99.90;;;;;;5038967;28;20039;-74
2022/04/10 09:55:42;;;;;;;6.15;1.83;;;11.80;99.80;;;;;;5053881;28;20439;-74
2022/04/10 09:58:13;;;;;;;8.00;1.58;;;11.60;99.90;;;;;;5058971;28;20390;-75
2022/04/10 10:00:46;;;;;;;5.75;1.55;;;11.90;99.90;;;;;;5054535;28;20044;-73
2022/04/10 10:03:15;;;;;;;6.20;1.55;;;12.20;97.90;;;;;;5053331;28;20045;-72
2022/04/10 10:05:41;;;;;;;10.45;1.65;;;12.50;97.80;;;;;;5035364;28;20040;-73
2022/04/10 10:08:07;;;;;;;6.00;1.52;;;12.90;97.20;;;;;;5056580;28;20394;-74
2022/04/10 10:10:36;;;;;;;5.63;1.33;;;12.90;97.50;;;;;;5054599;28;20044;-72
2022/04/10 10:13:06;;;;;;;4.93;1.30;;;12.50;96.00;;;;;;5053762;28;20037;-73
2022/04/10 10:15:35;;;;;;;5.60;1.50;;;11.90;94.30;;;;;;5051438;28;20037;-75
2022/04/10 10:18:06;;;;;;;6.18;1.40;;;11.70;95.40;;;;;;5054054;28;20128;-74
2022/04/10 10:20:32;;;;;;;8.60;1.67;;;12.20;96.70;;;;;;5062247;28;20144;-71
2022/04/10 10:23:03;;;;;;;5.63;1.20;;;12.50;95.30;;;;;;5053714;28;20056;-72
2022/04/10 10:25:37;;;;;;;6.15;1.42;;;12.10;93.00;;;;;;5056153;28;20036;-73
2022/04/10 10:28:31;;;;;;;5.82;1.30;;;11.70;93.90;;;;;;5056803;28;20040;-73
2022/04/10 10:31:31;;;;;;;3.38;0.93;;;11.50;93.70;;;;;;5074050;28;20129;-73
2022/04/10 10:34:02;;;;;;;5.63;1.10;;;11.20;94.50;;;;;;5074768;28;20464;-73
2022/04/10 10:36:28;;;;;;;6.28;1.60;;;11.60;95.30;;;;;;5073260;28;20519;-74
2022/04/10 10:38:56;;;;;;;5.75;1.13;;;11.70;93.40;;;;;;5073213;28;20123;-70
2022/04/10 10:41:22;;;;;;;6.25;1.13;;;11.80;92.80;;;;;;5073227;28;20064;-72
2022/04/10 10:43:48;;;;;;;5.20;1.27;;;11.60;91.90;;;;;;5072524;28;20419;-77
2022/04/10 10:46:32;;;;;;;7.20;1.52;;;11.40;93.20;;;;;;5056419;28;20158;-73
2022/04/10 10:49:18;;;;;;;6.13;1.17;;;11.60;94.50;;;;;;5071309;28;20041;-72
2022/04/10 10:51:45;;;;;;;4.10;1.15;;;11.90;94.30;;;;;;5052741;28;20041;-76
2022/04/10 10:54:20;;;;;;;6.47;1.40;;;11.70;94.70;;;;;;5052880;28;20083;-73
2022/04/10 10:56:47;;;;;;;8.00;1.40;;;11.50;95.00;;;;;;5067524;28;20055;-75
2022/04/10 10:59:35;;;;;;;5.40;1.40;;;11.80;96.20;;;;;;5072851;28;20051;-77
2022/04/10 11:02:04;;;;;;;4.78;1.60;;;11.80;93.40;;;;;;5072529;28;20052;-71
2022/04/10 11:05:15;;;;;;;4.25;1.70;;;11.50;93.90;;;;;;5072548;28;20118;-72
2022/04/10 11:07:41;;;;;;;5.85;1.42;;;11.50;93.60;;;;;;5052827;28;20502;-73
2022/04/10 11:10:09;;;;;;;3.85;1.10;;;11.90;92.60;;;;;;5053759;28;20048;-73
2022/04/10 11:12:51;;;;;;;7.93;1.58;;;12.50;92.60;;;;;;5070194;28;20222;-70
2022/04/10 11:15:24;;;;;;;4.03;1.10;;;13.00;92.10;;;;;;5061618;28;20455;-72
2022/04/10 11:17:53;;;;;;;4.95;1.05;;;12.80;90.60;;;;;;5052781;28;20056;-76
2022/04/10 11:20:21;;;;;;;5.82;1.63;;;12.80;91.80;;;;;;5053701;28;20053;-77
2022/04/10 11:22:53;;;;;;;4.97;1.20;;;13.20;90.90;;;;;;5053727;28;20370;-71
2022/04/10 11:25:38;;;;;;;5.68;1.50;;;13.40;89.80;;;;;;5051980;28;20045;-73
2022/04/10 11:28:07;;;;;;;7.30;1.85;;;13.60;87.10;;;;;;5056410;28;20052;-70
2022/04/10 11:30:41;;;;;;;5.47;1.70;;;13.90;87.50;;;;;;5058525;28;20048;-74
2022/04/10 11:33:10;;;;;;;7.90;2.40;;;13.90;83.20;;;;;;5053392;28;20038;-73
2022/04/10 11:35:39;;;;;;;7.88;1.80;;;13.40;83.90;;;;;;5057839;28;20029;-73
2022/04/10 11:38:17;;;;;;;7.10;2.60;;;13.00;87.50;;;;;;5058163;28;20455;-74
2022/04/10 11:40:50;;;;;;;6.22;2.45;;;13.30;89.30;;;;;;5060282;28;20549;-73
2022/04/10 11:43:17;;;;;;;9.57;5.20;;;13.10;83.70;;;;;;5063304;28;20061;-73
2022/04/10 11:45:48;;;;;;;26.92;14.38;;;12.50;85.10;;;;;;5062375;28;20388;-73
2022/04/10 11:48:14;;;;;;;12.50;6.40;;;11.90;86.50;;;;;;5072079;28;20048;-73
2022/04/10 11:50:41;;;;;;;5.10;2.17;;;11.60;89.70;;;;;;5071771;28;20052;-73
2022/04/10 11:53:13;;;;;;;5.95;1.90;;;11.90;90.30;;;;;;5073006;28;20111;-73
2022/04/10 11:55:40;;;;;;;4.00;1.25;;;12.00;88.70;;;;;;5061812;28;20049;-73
2022/04/10 11:58:25;;;;;;;7.35;1.45;;;11.70;87.10;;;;;;5051939;28;20123;-72
2022/04/10 12:00:56;;;;;;;5.60;1.20;;;11.60;87.30;;;;;;5052940;28;20417;-72
2022/04/10 12:03:25;;;;;;;3.92;1.40;;;11.40;88.40;;;;;;5053397;28;20397;-72
2022/04/10 12:05:52;;;;;;;8.75;2.60;;;11.20;89.40;;;;;;5052718;28;20041;-71
2022/04/10 12:08:20;;;;;;;7.25;2.17;;;11.60;90.70;;;;;;5054773;28;20044;-72
2022/04/10 12:10:56;;;;;;;9.80;2.10;;;11.90;87.50;;;;;;5054717;28;20048;-72
2022/04/10 12:13:34;;;;;;;12.18;2.88;;;11.80;83.80;;;;;;5071149;28;20060;-72
2022/04/10 12:16:16;;;;;;;4.90;1.50;;;11.70;82.70;;;;;;5070473;28;20060;-72
2022/04/10 12:18:53;;;;;;;5.38;1.38;;;11.60;87.30;;;;;;5066244;28;20134;-71
2022/04/10 12:21:22;;;;;;;5.40;1.60;;;11.80;87.60;;;;;;5072733;28;20052;-71
2022/04/10 12:24:03;;;;;;;5.03;1.23;;;12.10;89.00;;;;;;5071264;28;20045;-71
2022/04/10 12:26:33;;;;;;;7.07;1.40;;;12.50;88.70;;;;;;5075173;28;20495;-71
2022/04/10 12:29:00;;;;;;;8.93;1.95;;;13.00;88.50;;;;;;5079469;28;20047;-71
2022/04/10 12:31:28;;;;;;;5.15;1.60;;;13.30;84.70;;;;;;5079358;28;20048;-72
2022/04/10 12:33:54;;;;;;;9.25;1.55;;;13.40;83.00;;;;;;5078278;28;20039;-71
2022/04/10 12:36:25;;;;;;;8.35;2.30;;;13.50;82.10;;;;;;5078213;28;20133;-71
2022/04/10 12:38:52;;;;;;;2.80;1.10;;;13.50;80.10;;;;;;5075857;28;20044;-71
2022/04/10 12:41:32;;;;;;;6.20;1.27;;;13.50;76.40;;;;;;5077925;28;20472;-71
2022/04/10 12:44:05;;;;;;;7.72;1.02;;;13.30;79.30;;;;;;5076934;28;20048;-71
2022/04/10 12:46:35;;;;;;;4.75;1.60;;;13.20;78.40;;;;;;5079272;28;20101;-71
2022/04/10 12:49:11;;;;;;;7.10;1.73;;;13.00;77.80;;;;;;5074828;28;20051;-71
2022/04/10 12:51:50;;;;;;;6.47;1.20;;;13.10;78.90;;;;;;5079130;28;20041;-71
2022/04/10 12:54:16;;;;;;;3.60;1.13;;;13.20;78.60;;;;;;5078079;28;20143;-72
2022/04/10 12:56:42;;;;;;;6.10;1.20;;;13.30;78.00;;;;;;5078132;28;20106;-71
2022/04/10 12:59:08;;;;;;;6.60;1.30;;;13.10;77.20;;;;;;5079076;28;20079;-71
2022/04/10 13:01:34;;;;;;;4.80;1.25;;;12.80;74.80;;;;;;5077986;28;20511;-71
2022/04/10 13:04:02;;;;;;;5.32;1.30;;;12.50;77.10;;;;;;5077657;28;20048;-71